Time;durP1;ratioP1;P1;durP2;ratioP2;P2;SDS_P1;SDS_P2;PMS_P1;PMS_P2;Temp;Humidity;BMP_temperature;BMP_pressure;BME280_temperature;BME280_humidity;BME280_pressure;Samples;Min_cycle;Max_cycle;Signal;HPM_P1;HPM_P2
2021/10/13 00:01:10;;;;;;;7.00;1.52;;;;;;;10.50;88.22;102414.97;4999348;28;20026;-84
2021/10/13 00:03:35;;;;;;;10.38;1.55;;;;;;;10.59;88.35;102412.06;4999372;28;20392;-84
2021/10/13 00:06:01;;;;;;;4.05;1.10;;;;;;;10.68;88.46;102418.91;4999517;28;20037;-84
2021/10/13 00:08:26;;;;;;;9.20;1.50;;;;;;;10.78;88.80;102416.84;4999287;28;20036;-84
2021/10/13 00:10:51;;;;;;;5.85;1.23;;;;;;;10.80;88.49;102404.44;4981954;28;20033;-84
2021/10/13 00:13:17;;;;;;;6.28;1.33;;;;;;;10.82;88.40;102399.13;4999537;28;20022;-84
2021/10/13 00:15:42;;;;;;;7.15;1.58;;;;;;;10.84;88.00;102407.88;4999328;28;20094;-84
2021/10/13 00:18:08;;;;;;;5.65;1.10;;;;;;;10.80;88.62;102400.91;4999426;28;20034;-84
2021/10/13 00:20:33;;;;;;;8.05;1.55;;;;;;;10.83;89.25;102395.53;4999432;28;20377;-84
2021/10/13 00:22:59;;;;;;;6.88;1.95;;;;;;;10.79;88.82;102392.13;4999419;28;20038;-84
2021/10/13 00:25:25;;;;;;;4.43;1.30;;;;;;;10.78;89.19;102408.91;4999303;28;20027;-84
2021/10/13 00:27:50;;;;;;;9.38;1.50;;;;;;;10.93;88.93;102414.69;4989280;23;20051;-84
2021/10/13 00:30:16;;;;;;;7.78;1.20;;;;;;;11.00;88.02;102418.03;4927351;29;20043;-83
2021/10/13 00:32:41;;;;;;;8.05;1.25;;;;;;;11.06;87.07;102418.69;4960468;29;20038;-84
2021/10/13 00:35:07;;;;;;;6.40;1.55;;;;;;;11.23;85.99;102422.63;4960520;29;20042;-84
2021/10/13 00:37:32;;;;;;;7.25;1.00;;;;;;;11.30;85.99;102428.56;4960389;28;20486;-83
2021/10/13 00:39:58;;;;;;;7.47;1.30;;;;;;;11.37;85.81;102423.97;4943057;29;20441;-85
2021/10/13 00:42:23;;;;;;;9.43;1.80;;;;;;;11.38;85.64;102423.91;4961833;29;20390;-83
2021/10/13 00:44:48;;;;;;;4.30;0.90;;;;;;;11.38;85.71;102409.81;4961060;29;20416;-84
2021/10/13 00:47:14;;;;;;;4.63;0.93;;;;;;;11.30;85.60;102425.94;4962804;28;20031;-85
2021/10/13 00:49:39;;;;;;;6.45;1.20;;;;;;;11.16;85.91;102423.69;4961006;28;20030;-84
2021/10/13 00:52:05;;;;;;;2.17;0.90;;;;;;;11.16;85.78;102421.94;4957741;29;20027;-84
2021/10/13 00:54:31;;;;;;;6.93;1.52;;;;;;;11.11;86.51;102420.34;4940473;29;20027;-85
2021/10/13 00:56:56;;;;;;;5.47;1.13;;;;;;;11.03;87.31;102418.78;4942984;29;20047;-84
2021/10/13 00:59:21;;;;;;;5.80;1.40;;;;;;;11.06;87.14;102415.19;4940383;29;20045;-83
2021/10/13 01:01:54;;;;;;;5.40;1.20;;;;;;;11.06;87.26;102412.53;4940728;29;20533;-84
2021/10/13 01:04:28;;;;;;;5.10;1.25;;;;;;;10.99;87.09;102406.56;4940660;29;20114;-84
2021/10/13 01:07:06;;;;;;;5.07;1.13;;;;;;;10.93;87.40;102415.56;4957046;29;20074;-84
2021/10/13 01:09:34;;;;;;;4.53;1.13;;;;;;;10.89;87.46;102413.03;4957116;29;20109;-84
2021/10/13 01:12:29;;;;;;;3.47;1.05;;;;;;;10.83;87.84;102414.94;4943895;29;20031;-83
2021/10/13 01:15:18;;;;;;;4.30;1.30;;;;;;;10.82;87.57;102421.16;4940989;29;20024;-84
2021/10/13 01:17:48;;;;;;;3.80;0.98;;;;;;;10.85;87.58;102409.59;4939867;29;20023;-84
2021/10/13 01:20:20;;;;;;;10.05;1.10;;;;;;;10.76;88.31;102408.09;4908696;29;20475;-85
2021/10/13 01:22:52;;;;;;;3.70;0.77;;;;;;;10.70;88.39;102405.63;4939863;29;20035;-85
2021/10/13 01:25:39;;;;;;;6.70;1.23;;;;;;;10.64;88.26;102405.78;4956847;29;20039;-85
2021/10/13 01:28:16;;;;;;;3.70;0.73;;;;;;;10.59;88.28;102406.78;4923114;29;20051;-85
2021/10/13 01:30:56;;;;;;;3.95;0.90;;;;;;;10.53;88.61;102414.00;4956381;29;20061;-85
2021/10/13 01:33:23;;;;;;;3.22;0.82;;;;;;;10.49;88.45;102413.25;4939909;29;20367;-85
2021/10/13 01:35:50;;;;;;;4.53;0.88;;;;;;;10.42;88.69;102412.50;4939528;29;20428;-84
2021/10/13 01:38:18;;;;;;;2.58;0.95;;;;;;;10.35;88.36;102406.50;4956286;29;20024;-85
2021/10/13 01:40:43;;;;;;;3.38;0.98;;;;;;;10.27;88.40;102421.72;4939241;29;20110;-85
2021/10/13 01:43:09;;;;;;;5.60;0.93;;;;;;;10.13;88.10;102415.94;4940192;29;20087;-85
2021/10/13 01:45:34;;;;;;;2.22;0.82;;;;;;;10.07;87.91;102417.81;4923239;29;20035;-84
2021/10/13 01:48:00;;;;;;;6.50;0.98;;;;;;;10.06;88.55;102437.22;4938968;29;20077;-85
2021/10/13 01:50:26;;;;;;;8.60;1.60;;;;;;;10.02;88.72;102430.28;4923335;29;20102;-85
2021/10/13 01:52:51;;;;;;;6.68;1.02;;;;;;;10.01;89.90;102425.06;4939282;29;20038;-83
2021/10/13 01:55:18;;;;;;;5.93;1.20;;;;;;;10.12;90.70;102424.78;4938708;29;20055;-85
2021/10/13 01:57:45;;;;;;;7.90;1.42;;;;;;;10.07;90.55;102432.81;4924062;29;20032;-86
2021/10/13 02:00:11;;;;;;;5.90;1.33;;;;;;;10.02;90.76;102427.66;4955771;29;20040;-86
2021/10/13 02:02:37;;;;;;;7.82;1.13;;;;;;;9.95;90.85;102424.28;4938746;29;20054;-85
2021/10/13 02:05:03;;;;;;;4.50;1.10;;;;;;;9.89;91.21;102427.09;4923039;29;20033;-85
2021/10/13 02:07:29;;;;;;;5.32;1.20;;;;;;;9.81;90.85;102429.91;4922786;29;20034;-85
2021/10/13 02:10:01;;;;;;;3.38;1.83;;;;;;;9.81;91.49;102431.69;4938443;29;20023;-85
2021/10/13 02:12:27;;;;;;;5.97;1.40;;;;;;;9.84;91.57;102431.59;4939035;29;20423;-85
2021/10/13 02:14:52;;;;;;;6.40;1.48;;;;;;;9.90;92.11;102430.59;4922425;29;20051;-85
2021/10/13 02:17:18;;;;;;;4.65;0.95;;;;;;;9.91;91.06;102429.69;4938478;29;20071;-85
2021/10/13 02:19:45;;;;;;;7.05;1.02;;;;;;;9.93;91.44;102435.81;4938433;29;20027;-85
2021/10/13 02:22:10;;;;;;;5.18;1.00;;;;;;;10.01;91.07;102430.34;4938451;29;20394;-86
2021/10/13 02:24:44;;;;;;;5.57;1.45;;;;;;;10.16;90.55;102435.22;4922611;29;20050;-83
2021/10/13 02:27:12;;;;;;;4.10;1.15;;;;;;;10.31;89.52;102433.94;4937848;29;20112;-84
2021/10/13 02:29:37;;;;;;;11.52;1.70;;;;;;;10.46;88.64;102440.63;4922569;29;20153;-86
2021/10/13 02:32:03;;;;;;;9.65;1.25;;;;;;;10.57;88.13;102427.13;4938034;29;20030;-86
2021/10/13 02:34:29;;;;;;;4.03;1.00;;;;;;;10.62;87.01;102429.63;4955504;29;20431;-86
2021/10/13 02:36:55;;;;;;;7.20;1.25;;;;;;;10.75;85.67;102426.66;4938485;29;20042;-85
2021/10/13 02:39:20;;;;;;;4.85;1.13;;;;;;;10.88;84.73;102421.88;4938277;29;20027;-86
2021/10/13 02:41:46;;;;;;;4.18;0.98;;;;;;;10.96;83.99;102418.13;4955105;29;20146;-85
2021/10/13 02:44:11;;;;;;;4.05;1.05;;;;;;;10.92;83.67;102418.25;4954942;29;20090;-84
2021/10/13 02:46:50;;;;;;;3.75;1.05;;;;;;;10.84;83.78;102423.75;4937894;29;20032;-85
2021/10/13 02:49:50;;;;;;;4.70;1.35;;;;;;;10.80;84.03;102430.91;4955017;29;20055;-85
2021/10/13 02:52:29;;;;;;;5.53;1.67;;;;;;;10.69;83.26;102435.63;4955097;29;20110;-85
2021/10/13 02:55:05;;;;;;;3.92;0.95;;;;;;;10.68;82.59;102439.19;4938885;29;20070;-84
2021/10/13 02:57:36;;;;;;;3.17;0.88;;;;;;;10.65;81.97;102434.00;4957218;29;20042;-84
2021/10/13 03:00:04;;;;;;;1.65;0.80;;;;;;;10.74;81.38;102448.72;4937763;29;20451;-84
2021/10/13 03:02:31;;;;;;;5.05;0.95;;;;;;;10.72;80.67;102440.84;4937324;29;20031;-82
2021/10/13 03:04:57;;;;;;;1.38;0.80;;;;;;;10.71;79.53;102442.63;4937841;29;20087;-83
2021/10/13 03:07:31;;;;;;;4.75;0.88;;;;;;;10.68;78.95;102433.91;4922113;29;20035;-85
2021/10/13 03:10:00;;;;;;;3.05;0.90;;;;;;;10.71;79.66;102441.75;4922318;29;20087;-82
2021/10/13 03:12:27;;;;;;;1.95;0.90;;;;;;;10.63;80.25;102446.38;4938172;28;20024;-85
2021/10/13 03:14:54;;;;;;;2.92;0.90;;;;;;;10.56;80.57;102449.19;4921679;29;20023;-84
2021/10/13 03:17:20;;;;;;;4.75;1.00;;;;;;;10.50;81.88;102441.44;4921967;29;20031;-84
2021/10/13 03:19:45;;;;;;;4.70;1.60;;;;;;;10.37;82.72;102453.22;4921770;29;20078;-84
2021/10/13 03:22:11;;;;;;;2.80;1.05;;;;;;;10.44;82.64;102449.50;4954673;29;20035;-84
2021/10/13 03:24:36;;;;;;;5.25;1.63;;;;;;;10.34;82.84;102446.22;4954660;29;20111;-84
2021/10/13 03:27:02;;;;;;;3.20;1.02;;;;;;;10.12;84.16;102448.56;4937086;29;20075;-85
2021/10/13 03:29:27;;;;;;;5.53;1.00;;;;;;;9.99;84.80;102445.34;4954753;29;20051;-84
2021/10/13 03:31:54;;;;;;;5.70;1.02;;;;;;;9.94;85.94;102450.75;4954629;29;20051;-84
2021/10/13 03:34:19;;;;;;;3.25;1.10;;;;;;;9.88;85.90;102461.47;4937427;29;20031;-84
2021/10/13 03:36:46;;;;;;;6.35;0.90;;;;;;;9.94;85.42;102466.59;4954558;29;20046;-84
2021/10/13 03:39:15;;;;;;;4.50;1.20;;;;;;;10.05;85.94;102463.69;4954603;29;20102;-84
2021/10/13 03:41:40;;;;;;;5.10;1.10;;;;;;;10.16;85.59;102474.00;4954531;29;20043;-84
2021/10/13 03:44:06;;;;;;;3.50;0.80;;;;;;;10.13;85.28;102467.03;4937435;29;20504;-83
2021/10/13 03:46:32;;;;;;;3.40;0.85;;;;;;;10.34;84.07;102467.38;4954466;29;20110;-84
2021/10/13 03:48:57;;;;;;;3.35;0.90;;;;;;;10.43;83.71;102468.94;4937515;29;20035;-84
2021/10/13 03:51:22;;;;;;;3.50;0.82;;;;;;;10.50;83.34;102470.53;4937254;29;20031;-83
2021/10/13 03:53:48;;;;;;;4.72;0.70;;;;;;;10.56;83.18;102465.06;4937450;29;20027;-83
2021/10/13 03:56:13;;;;;;;2.53;1.05;;;;;;;10.53;82.55;102457.22;4955330;29;20031;-84
2021/10/13 03:58:39;;;;;;;3.38;0.98;;;;;;;10.58;82.06;102462.38;4955174;29;20371;-84
2021/10/13 04:01:05;;;;;;;2.60;1.27;;;;;;;10.57;82.46;102463.31;4922424;29;20035;-84
2021/10/13 04:03:30;;;;;;;1.88;0.88;;;;;;;10.56;82.80;102466.84;4955131;29;20367;-84
2021/10/13 04:05:55;;;;;;;1.35;1.00;;;;;;;10.55;83.10;102466.00;4937743;29;20027;-84
2021/10/13 04:08:21;;;;;;;2.88;0.80;;;;;;;10.57;82.94;102469.44;4954848;29;20042;-83
2021/10/13 04:10:46;;;;;;;2.13;0.90;;;;;;;10.68;83.04;102463.00;4954387;29;20035;-84
2021/10/13 04:13:12;;;;;;;7.53;1.38;;;;;;;10.61;83.17;102469.34;4954410;29;20035;-83
2021/10/13 04:15:37;;;;;;;7.38;1.00;;;;;;;10.75;82.84;102471.66;4954401;29;20027;-84
2021/10/13 04:18:04;;;;;;;6.95;1.33;;;;;;;10.75;82.52;102467.22;4954424;29;20023;-84
2021/10/13 04:20:29;;;;;;;3.58;1.10;;;;;;;10.81;82.31;102472.34;4962571;29;20027;-84
2021/10/13 04:22:55;;;;;;;6.05;1.27;;;;;;;10.72;82.84;102467.28;4969157;29;20042;-84
2021/10/13 04:25:20;;;;;;;1.40;1.02;;;;;;;10.74;82.57;102469.91;4973962;28;20091;-83
2021/10/13 04:27:46;;;;;;;3.10;1.00;;;;;;;10.64;82.51;102469.28;4975292;23;20489;-84
2021/10/13 04:30:11;;;;;;;3.38;0.82;;;;;;;10.56;83.04;102464.19;4960226;29;20043;-84
2021/10/13 04:32:37;;;;;;;3.05;1.30;;;;;;;10.48;83.07;102466.19;4945832;29;20027;-83
2021/10/13 04:35:02;;;;;;;4.50;1.30;;;;;;;10.45;83.19;102467.97;4963208;29;20031;-84
2021/10/13 04:37:29;;;;;;;6.40;1.23;;;;;;;10.31;84.23;102463.03;4961615;29;20042;-83
2021/10/13 04:39:54;;;;;;;4.40;1.70;;;;;;;10.14;84.97;102452.91;4959790;29;20104;-83
2021/10/13 04:42:20;;;;;;;4.93;1.40;;;;;;;10.00;85.38;102465.59;4960634;29;20403;-82
2021/10/13 04:44:45;;;;;;;4.88;1.80;;;;;;;9.80;86.83;102461.66;4961040;29;20035;-81
2021/10/13 04:47:11;;;;;;;3.92;1.90;;;;;;;9.65;87.22;102460.25;4957180;29;20056;-82
2021/10/13 04:49:36;;;;;;;3.63;1.95;;;;;;;9.53;88.46;102453.47;4957127;29;20043;-83
2021/10/13 04:52:01;;;;;;;4.93;1.90;;;;;;;9.47;88.32;102465.03;4952595;29;20087;-83
2021/10/13 04:54:27;;;;;;;5.43;2.30;;;;;;;9.59;89.16;102467.41;4957965;28;20402;-82
2021/10/13 04:56:52;;;;;;;6.25;2.50;;;;;;;9.62;90.76;102471.75;4944522;29;20043;-84
2021/10/13 04:59:19;;;;;;;4.97;2.03;;;;;;;9.68;90.66;102473.38;4943094;29;20032;-83
2021/10/13 05:01:45;;;;;;;4.13;1.70;;;;;;;9.55;91.73;102471.03;4944793;29;20031;-83
2021/10/13 05:04:12;;;;;;;3.53;1.35;;;;;;;9.47;91.99;102479.13;4927763;29;20091;-82
2021/10/13 05:06:37;;;;;;;4.38;1.50;;;;;;;9.38;91.86;102468.75;4944555;29;20023;-84
2021/10/13 05:09:04;;;;;;;6.40;1.55;;;;;;;9.28;91.57;102476.00;4943112;29;20027;-84
2021/10/13 05:11:31;;;;;;;4.25;1.50;;;;;;;9.29;91.69;102477.72;4943140;29;20494;-83
2021/10/13 05:13:56;;;;;;;4.68;1.83;;;;;;;9.25;91.39;102478.72;4944013;29;20047;-83
2021/10/13 05:16:22;;;;;;;5.82;2.00;;;;;;;9.13;91.23;102487.72;4943172;28;20039;-83
2021/10/13 05:18:48;;;;;;;7.95;2.00;;;;;;;9.03;91.94;102488.81;4944617;29;20035;-82
2021/10/13 05:21:13;;;;;;;5.95;1.88;;;;;;;8.91;91.57;102490.78;4946222;29;20035;-82
2021/10/13 05:23:38;;;;;;;3.75;1.67;;;;;;;8.77;91.65;102501.63;4956479;29;20035;-82
2021/10/13 05:26:04;;;;;;;4.35;1.45;;;;;;;8.70;91.47;102498.25;4957499;29;20067;-83
2021/10/13 05:28:29;;;;;;;5.50;1.80;;;;;;;8.66;91.40;102509.72;4957040;29;20401;-82
2021/10/13 05:30:55;;;;;;;3.95;1.73;;;;;;;8.68;92.04;102501.78;4964063;29;20234;-83
2021/10/13 05:33:20;;;;;;;7.47;2.28;;;;;;;8.75;92.01;102502.56;4956933;29;20497;-83
2021/10/13 05:35:45;;;;;;;8.27;2.63;;;;;;;8.78;92.45;102497.22;4957237;28;20490;-83
2021/10/13 05:38:11;;;;;;;4.75;2.42;;;;;;;8.77;93.79;102501.63;4960515;29;20471;-83
2021/10/13 05:40:36;;;;;;;8.25;1.98;;;;;;;8.78;93.29;102498.09;4960718;29;20435;-83
2021/10/13 05:43:02;;;;;;;4.95;2.00;;;;;;;8.78;92.97;102497.22;4942822;29;20023;-83
2021/10/13 05:45:27;;;;;;;5.25;2.35;;;;;;;8.81;93.64;102510.34;4945202;29;20023;-83
2021/10/13 05:47:53;;;;;;;9.73;2.50;;;;;;;8.93;93.37;102506.59;4956339;29;20055;-83
2021/10/13 05:50:18;;;;;;;5.95;2.33;;;;;;;8.99;93.49;102517.03;4956344;29;20027;-82
2021/10/13 05:52:44;;;;;;;5.05;2.15;;;;;;;9.09;94.59;102520.38;4923000;29;20497;-82
2021/10/13 05:55:09;;;;;;;4.80;2.03;;;;;;;9.31;94.62;102519.94;4955885;29;20035;-83
2021/10/13 05:57:35;;;;;;;6.65;2.00;;;;;;;9.53;93.81;102512.44;4938663;29;20566;-83
2021/10/13 06:00:03;;;;;;;5.18;1.98;;;;;;;9.70;92.82;102516.47;4937942;29;20034;-84
2021/10/13 06:02:28;;;;;;;5.45;1.85;;;;;;;9.92;91.87;102521.25;4938503;29;20340;-83
2021/10/13 06:04:53;;;;;;;4.00;1.55;;;;;;;10.08;91.25;102517.38;4956112;29;20033;-83
2021/10/13 06:07:19;;;;;;;4.53;1.30;;;;;;;10.16;90.24;102519.81;4956071;29;20040;-83
2021/10/13 06:09:45;;;;;;;5.40;1.40;;;;;;;10.26;89.89;102522.25;4955735;29;20031;-82
2021/10/13 06:12:10;;;;;;;5.10;1.52;;;;;;;10.27;88.60;102523.97;4955578;29;20028;-83
2021/10/13 06:14:36;;;;;;;6.40;2.50;;;;;;;10.28;88.45;102523.06;4952574;28;20038;-83
2021/10/13 06:17:01;;;;;;;7.15;2.47;;;;;;;10.33;88.33;102523.81;4936929;29;20032;-84
2021/10/13 06:19:27;;;;;;;5.35;2.80;;;;;;;10.31;88.51;102528.25;4937007;29;20043;-84
2021/10/13 06:21:53;;;;;;;7.15;3.38;;;;;;;10.30;89.19;102537.13;4936080;29;20382;-83
2021/10/13 06:24:18;;;;;;;5.93;2.13;;;;;;;10.40;89.17;102540.41;4940616;29;20031;-83
2021/10/13 06:26:43;;;;;;;4.97;1.95;;;;;;;10.49;88.63;102541.97;4955016;29;20100;-83
2021/10/13 06:29:09;;;;;;;6.63;1.70;;;;;;;10.58;88.34;102545.25;4955463;29;20368;-83
2021/10/13 06:31:35;;;;;;;5.20;1.60;;;;;;;10.80;88.64;102550.00;4951743;29;20327;-82
2021/10/13 06:34:01;;;;;;;11.43;3.63;;;;;;;10.75;87.44;102551.03;4969718;29;20087;-83
2021/10/13 06:36:26;;;;;;;4.90;1.60;;;;;;;10.82;86.47;102552.59;4970569;29;20091;-82
2021/10/13 06:38:52;;;;;;;3.53;1.50;;;;;;;10.92;86.12;102548.78;4964186;29;20043;-83
2021/10/13 06:41:18;;;;;;;4.60;1.85;;;;;;;10.82;86.10;102556.13;4963921;29;20037;-82
2021/10/13 06:43:43;;;;;;;4.63;1.77;;;;;;;10.90;85.45;102557.69;4958825;29;20143;-82
2021/10/13 06:46:09;;;;;;;7.57;1.95;;;;;;;10.96;85.61;102552.22;4955460;29;20023;-81
2021/10/13 06:48:34;;;;;;;4.32;2.00;;;;;;;11.13;84.80;102565.00;4954553;28;20027;-80
2021/10/13 06:50:59;;;;;;;5.80;2.33;;;;;;;11.30;83.88;102553.94;4955025;29;20116;-81
2021/10/13 06:53:26;;;;;;;6.53;2.20;;;;;;;11.44;83.12;102557.94;4954782;29;20034;-79
2021/10/13 06:55:51;;;;;;;6.38;2.80;;;;;;;11.59;83.47;102565.44;4937642;29;20036;-80
2021/10/13 06:58:17;;;;;;;7.70;2.10;;;;;;;11.71;83.11;102563.34;4954627;29;20031;-80
2021/10/13 07:00:42;;;;;;;8.10;2.45;;;;;;;11.85;81.95;102565.59;4955308;29;20035;-80
2021/10/13 07:03:07;;;;;;;6.82;1.92;;;;;;;12.01;81.85;102565.09;4954522;29;20027;-80
2021/10/13 07:05:36;;;;;;;6.22;1.73;;;;;;;12.06;80.52;102568.47;4954814;29;20463;-80
2021/10/13 07:08:02;;;;;;;4.88;1.95;;;;;;;12.06;79.75;102568.47;4954624;29;20443;-80
2021/10/13 07:10:27;;;;;;;9.13;2.00;;;;;;;12.03;79.25;102563.28;4954821;29;20102;-80
2021/10/13 07:12:53;;;;;;;5.43;2.00;;;;;;;12.28;79.42;102565.19;4937157;29;20031;-81
2021/10/13 07:15:18;;;;;;;4.68;1.85;;;;;;;12.28;78.47;102568.72;4954469;29;20031;-81
2021/10/13 07:17:44;;;;;;;7.03;2.40;;;;;;;12.40;78.44;102563.88;4954320;29;20034;-79
2021/10/13 07:20:10;;;;;;;5.45;2.08;;;;;;;12.39;78.88;102564.81;4937191;29;20043;-80
2021/10/13 07:22:35;;;;;;;5.97;1.90;;;;;;;12.73;78.23;102560.16;4954336;29;20027;-80
2021/10/13 07:25:03;;;;;;;8.02;1.75;;;;;;;12.78;75.96;102564.38;4954021;29;20024;-81
2021/10/13 07:27:29;;;;;;;4.07;1.90;;;;;;;12.86;76.29;102574.75;4953755;29;20079;-81
2021/10/13 07:30:02;;;;;;;5.20;1.60;;;;;;;12.94;75.70;102577.97;4953817;29;20036;-81
2021/10/13 07:32:31;;;;;;;6.30;2.05;;;;;;;12.99;75.75;102567.19;4954652;29;20019;-80
2021/10/13 07:34:56;;;;;;;5.32;2.20;;;;;;;13.10;75.41;102565.97;4954208;29;20027;-81
2021/10/13 07:37:22;;;;;;;5.30;2.05;;;;;;;13.14;74.77;102567.56;4954208;29;20074;-81
2021/10/13 07:39:47;;;;;;;4.85;1.70;;;;;;;13.17;74.04;102568.34;4954435;29;20028;-81
2021/10/13 07:42:14;;;;;;;5.30;1.75;;;;;;;13.07;73.76;102566.91;4954018;29;20027;-83
2021/10/13 07:44:40;;;;;;;4.55;2.00;;;;;;;13.12;73.87;102566.75;4954098;29;20375;-82
2021/10/13 07:47:05;;;;;;;6.78;1.60;;;;;;;13.10;73.55;102572.13;4955807;29;20081;-81
2021/10/13 07:49:31;;;;;;;5.53;1.98;;;;;;;13.00;74.00;102568.94;4954348;29;20031;-81
2021/10/13 07:51:56;;;;;;;3.70;1.40;;;;;;;13.32;72.93;102574.88;4954303;29;20031;-82
2021/10/13 07:54:22;;;;;;;1.80;1.38;;;;;;;13.37;72.27;102573.84;4954772;29;20035;-81
2021/10/13 07:56:48;;;;;;;4.93;1.60;;;;;;;13.39;72.42;102569.31;4954310;29;20039;-81
2021/10/13 07:59:14;;;;;;;4.68;1.45;;;;;;;13.47;72.16;102575.22;4939215;29;20035;-82
2021/10/13 08:01:40;;;;;;;4.88;1.70;;;;;;;13.58;71.77;102574.84;4944982;29;20034;-81
2021/10/13 08:04:06;;;;;;;5.05;1.38;;;;;;;13.65;70.79;102578.16;4957975;29;20031;-81
2021/10/13 08:06:31;;;;;;;5.10;1.35;;;;;;;13.77;70.17;102580.34;4958205;29;20035;-81
2021/10/13 08:08:56;;;;;;;5.30;1.42;;;;;;;13.91;69.03;102578.91;4957942;29;20111;-82
2021/10/13 08:11:22;;;;;;;6.47;1.63;;;;;;;14.00;69.39;102580.31;4941384;29;20094;-82
2021/10/13 08:13:47;;;;;;;4.00;1.30;;;;;;;13.99;68.50;102589.25;4957996;29;20027;-82
2021/10/13 08:16:13;;;;;;;4.07;1.30;;;;;;;14.23;68.14;102589.19;4957893;29;20031;-83
2021/10/13 08:18:38;;;;;;;6.05;1.42;;;;;;;14.04;68.37;102601.44;4957881;29;20027;-82
2021/10/13 08:21:04;;;;;;;6.30;1.33;;;;;;;14.36;67.96;102602.84;4957887;29;20038;-82
2021/10/13 08:23:29;;;;;;;4.53;1.30;;;;;;;14.57;67.87;102607.28;4957944;29;20490;-81
2021/10/13 08:28:21;;;;;;;2.55;1.05;;;;;;;14.77;66.13;102597.59;4926244;23;20419;-84
2021/10/13 08:30:47;;;;;;;3.85;1.15;;;;;;;15.12;64.97;102606.81;4919527;29;20046;-82
2021/10/13 08:33:12;;;;;;;4.55;1.10;;;;;;;15.16;65.29;102611.94;4919467;29;20428;-82
2021/10/13 08:35:38;;;;;;;3.45;0.98;;;;;;;15.27;64.73;102608.78;4919500;29;20036;-81
2021/10/13 08:38:03;;;;;;;1.65;1.10;;;;;;;15.32;65.08;102606.78;4902528;29;20084;-83
2021/10/13 08:40:29;;;;;;;4.68;0.90;;;;;;;15.57;65.00;102618.13;4919809;29;20084;-81
2021/10/13 08:42:56;;;;;;;5.13;1.20;;;;;;;15.66;65.46;102611.50;4924952;29;20028;-81
2021/10/13 08:45:23;;;;;;;4.95;1.00;;;;;;;16.10;64.62;102610.34;4904706;29;20044;-80
2021/10/13 08:47:49;;;;;;;3.70;1.00;;;;;;;15.97;64.98;102612.75;4919200;29;20036;-81
2021/10/13 08:50:14;;;;;;;6.72;1.38;;;;;;;15.54;65.59;102605.81;4919619;29;20494;-81
2021/10/13 08:52:40;;;;;;;5.68;1.10;;;;;;;15.68;66.73;102609.63;4902397;29;20091;-81
2021/10/13 08:55:07;;;;;;;4.05;1.25;;;;;;;15.35;66.05;102611.09;4918847;29;20032;-80
2021/10/13 08:57:32;;;;;;;5.20;1.10;;;;;;;15.24;66.08;102603.59;4919171;29;20036;-81
2021/10/13 08:59:58;;;;;;;3.83;1.10;;;;;;;15.63;65.69;102607.19;4918754;29;20406;-78
2021/10/13 09:02:42;;;;;;;5.30;1.25;;;;;;;15.50;65.40;102616.69;4918219;29;20103;-79
2021/10/13 09:05:17;;;;;;;6.68;1.25;;;;;;;15.32;65.45;102601.47;4921470;29;20036;-77
2021/10/13 09:07:50;;;;;;;6.55;1.15;;;;;;;15.49;65.76;102610.47;4924463;29;20123;-81
2021/10/13 09:10:28;;;;;;;;;;;;;;;15.02;66.09;102609.00;4918661;29;20035;-79
2021/10/13 09:12:54;;;;;;;6.43;1.17;;;;;;;14.78;67.35;102617.97;4916957;29;19915;-79
2021/10/13 09:15:23;;;;;;;7.75;1.20;;;;;;;14.85;67.12;102618.59;4919615;29;20052;-79
2021/10/13 09:18:01;;;;;;;6.63;1.10;;;;;;;14.91;67.24;102614.81;4927482;29;20061;-80
2021/10/13 09:20:28;;;;;;;3.45;0.93;;;;;;;14.68;68.03;102620.16;4918110;29;20100;-79
2021/10/13 09:23:18;;;;;;;3.08;1.20;;;;;;;13.69;74.00;102616.97;4908384;29;20060;-79
2021/10/13 09:26:09;;;;;;;4.53;1.00;;;;;;;13.62;77.25;102634.09;4819769;29;20494;-79
2021/10/13 09:28:35;;;;;;;6.45;1.30;;;;;;;13.43;78.79;102640.91;4811401;29;20145;-79
2021/10/13 09:31:21;;;;;;;4.13;1.10;;;;;;;13.16;82.22;102635.63;4807715;29;20137;-78
2021/10/13 09:33:59;;;;;;;10.32;1.55;;;;;;;13.14;81.55;102636.63;4822801;29;20062;-78
2021/10/13 09:36:39;;;;;;;5.10;1.20;;;;;;;13.26;81.06;102640.63;4817138;29;20102;-78
2021/10/13 09:39:15;;;;;;;4.78;1.52;;;;;;;13.25;81.68;102646.88;4815386;29;20042;-79
2021/10/13 09:41:58;;;;;;;5.75;1.80;;;;;;;13.41;81.76;102640.09;4807679;29;20117;-79
2021/10/13 09:44:24;;;;;;;5.50;1.15;;;;;;;13.26;78.27;102638.84;4817033;29;20043;-79
2021/10/13 09:46:50;;;;;;;3.85;1.33;;;;;;;13.52;78.77;102642.41;4813378;29;20052;-78
2021/10/13 09:49:31;;;;;;;5.70;1.45;;;;;;;14.01;76.69;102646.75;4810520;29;20584;-79
2021/10/13 09:52:21;;;;;;;7.22;1.58;;;;;;;14.29;76.50;102643.00;4819344;29;20122;-78
2021/10/13 09:54:47;;;;;;;2.92;1.60;;;;;;;14.47;74.34;102647.66;4806205;29;20042;-78
2021/10/13 09:57:20;;;;;;;2.72;1.30;;;;;;;14.33;73.22;102636.66;4811180;29;20051;-81
2021/10/13 09:59:55;;;;;;;7.15;1.08;;;;;;;14.02;72.42;102642.31;4804988;29;20048;-81
2021/10/13 10:02:20;;;;;;;2.80;0.98;;;;;;;14.35;71.45;102638.38;4843350;29;20036;-82
2021/10/13 10:04:46;;;;;;;5.20;1.33;;;;;;;14.43;70.31;102645.13;4866550;29;20029;-81
2021/10/13 10:07:11;;;;;;;3.55;0.95;;;;;;;14.58;70.39;102640.09;4870714;29;20360;-81
2021/10/13 10:09:36;;;;;;;3.00;1.10;;;;;;;14.97;68.72;102637.66;4894049;29;20025;-79
2021/10/13 10:12:06;;;;;;;6.55;1.10;;;;;;;15.11;68.04;102637.91;4890035;29;20034;-81
2021/10/13 10:14:32;;;;;;;3.53;1.02;;;;;;;15.29;68.83;102638.03;4917477;29;20043;-80
2021/10/13 10:17:00;;;;;;;6.68;1.20;;;;;;;16.25;66.53;102646.13;4917178;29;20031;-80
2021/10/13 10:19:27;;;;;;;4.35;1.10;;;;;;;15.64;66.32;102648.91;4917324;29;20032;-79
2021/10/13 10:22:21;;;;;;;7.65;1.00;;;;;;;15.52;65.52;102638.78;4917073;29;20024;-80
2021/10/13 10:24:46;;;;;;;5.75;1.30;;;;;;;15.45;66.09;102646.22;4917351;29;20035;-80
2021/10/13 10:27:20;;;;;;;4.53;1.35;;;;;;;15.45;67.20;102657.72;4916917;29;20044;-81
2021/10/13 10:29:46;;;;;;;5.90;1.10;;;;;;;15.13;66.06;102660.03;4917303;29;20052;-83
2021/10/13 10:32:19;;;;;;;5.03;1.13;;;;;;;14.94;64.55;102649.28;4917040;29;20519;-80
2021/10/13 10:35:03;;;;;;;6.67;3.00;;;;;;;14.72;66.27;102663.50;4916954;29;20503;-81
2021/10/13 10:37:48;;;;;;;4.35;1.05;;;;;;;14.87;64.44;102661.16;4916975;29;20028;-80
2021/10/13 10:40:14;;;;;;;4.53;1.85;;;;;;;14.69;63.99;102655.63;4916883;29;20056;-78
2021/10/13 10:43:19;;;;;;;4.68;1.40;;;;;;;14.81;63.69;102665.78;4916864;29;20074;-81
2021/10/13 10:45:57;;;;;;;4.60;1.20;;;;;;;15.07;62.76;102661.19;4869702;29;20365;-80
2021/10/13 10:48:24;;;;;;;3.47;1.35;;;;;;;15.20;62.44;102666.81;4868093;29;20539;-80
2021/10/13 10:50:52;;;;;;;4.00;1.00;;;;;;;14.85;62.86;102660.34;4868040;29;20114;-79
2021/10/13 10:53:24;;;;;;;3.42;1.00;;;;;;;14.61;62.89;102658.59;4877320;29;20040;-79
2021/10/13 10:55:50;;;;;;;5.75;0.90;;;;;;;14.78;62.05;102663.22;4877132;29;20037;-81
2021/10/13 10:58:29;;;;;;;4.15;1.33;;;;;;;15.63;61.01;102659.63;4876738;29;20029;-78
2021/10/13 11:01:07;;;;;;;5.82;1.05;;;;;;;16.12;60.43;102658.31;4877055;29;20041;-80
2021/10/13 11:03:37;;;;;;;4.85;1.00;;;;;;;16.00;58.81;102651.78;4873549;29;20446;-79
2021/10/13 11:06:21;;;;;;;2.88;0.90;;;;;;;15.79;59.22;102657.13;4866575;29;20033;-79
2021/10/13 11:08:50;;;;;;;3.33;0.90;;;;;;;15.90;58.31;102659.31;4852450;29;20465;-80
2021/10/13 11:11:16;;;;;;;5.68;0.93;;;;;;;15.83;57.85;102661.38;4849815;29;20034;-81
2021/10/13 11:13:41;;;;;;;6.53;1.00;;;;;;;15.65;58.61;102658.66;4865914;29;20391;-80
2021/10/13 11:16:08;;;;;;;4.97;1.30;;;;;;;16.04;58.65;102662.22;4857990;29;20041;-81
2021/10/13 11:18:33;;;;;;;5.18;0.90;;;;;;;16.08;58.14;102662.09;4876274;29;20429;-81
2021/10/13 11:20:58;;;;;;;4.15;1.05;;;;;;;16.61;56.88;102665.75;4877269;29;20079;-80
2021/10/13 11:23:24;;;;;;;3.90;0.88;;;;;;;16.41;56.08;102666.75;4883638;29;20040;-81
2021/10/13 11:25:52;;;;;;;4.20;1.00;;;;;;;16.40;56.86;102662.31;4899412;29;20028;-82
2021/10/13 11:28:18;;;;;;;5.13;1.25;;;;;;;16.05;56.29;102674.63;4916490;29;20052;-82
2021/10/13 11:30:48;;;;;;;4.75;1.00;;;;;;;16.05;55.81;102671.94;4916388;29;20064;-83
2021/10/13 11:33:14;;;;;;;5.28;0.85;;;;;;;15.76;57.08;102674.16;4916064;29;20024;-80